San Luis Obispo, CA

4:35 PM PDT on September 27, 2016 (GMT -0700)
Lawrence Drive | | Change Station

Elev 266 ft 35.26 °N, 120.65 °W | Updated 8 seconds ago

Clear
Clear
91.6 °F
Feels Like 87 °F
N
1.8
Wind Variable Wind from WNW
Gusts 2.5 mph

Today
High -- | Low -- °F
--% Chance of Precip.
Yesterday
High -- | Low -- °F
Precip. -- in
Pressure 29.77 in
Visibility 10.0 miles
Clouds Clear
Heat Index 87 °F
Dew Point 27 °F
Humidity 10%
Rainfall 0.00 in
Snow Depth Not available.
6:54 AM 6:51 PM
Waning Crescent, 9% visible
METAR KSBP 272256Z 32018G26KT 10SM CLR 34/02 A2978 RMK AO2 PK WND 32029/2208 SLP081 T03390017
Pressure 29.77 in
Visibility 10.0 miles
Clouds Clear
Heat Index 87 °F
Dew Point 27 °F
Humidity 10%
Rainfall 0.00 in
Snow Depth Not available.
6:54 AM 6:51 PM
Waning Crescent, 9% visible
METAR KSBP 272256Z 32018G26KT 10SM CLR 34/02 A2978 RMK AO2 PK WND 32029/2208 SLP081 T03390017

10-Day Weather Forecast

Almanac

Astronomy

Sep. 27, 2016 Rise Set
Actual Time
Civil Twilight
Nautical Twilight
Astronomical Twilight
Moon
Length of Visible Light
Length of Day
Tomorrow will be .
, % of the Moon is Illuminated

Today's Extremes

State Highs State Lows

Community

WunderPhotos

Upload Photos

1,942,179 photos uploaded!

WunderBlog® & News

Nearby

Air Quality

  Air Quality AQ Index Pollutant
Not available.

Snow Depth

Station Depth Elevation

Earthquake Activity

City Distance Mag. Time & Date
Minimum magnitude displayed is 2.5.

Coastal Water Temperatures

Place Temperature

Stations

Nearby Weather Stations

Station Location Temp. Windchill Dew Point Humidity Wind Precip. Elev Updated Type
                   

Watches & Warnings

There are currently no watches in effect.